Time;durP1;ratioP1;P1;durP2;ratioP2;P2;SDS_P1;SDS_P2;PMS_P1;PMS_P2;Temp;Humidity;BMP_temperature;BMP_pressure;BME280_temperature;BME280_humidity;BME280_pressure;Samples;Min_cycle;Max_cycle;Signal;HPM_P1;HPM_P2
2023/04/15 00:00:58;;;;;;;22.27;12.00;;;;;;;-145.18;100.00;60484.78;5096145;28;20067;-70
2023/04/15 00:03:23;;;;;;;22.77;12.13;;;;;;;-145.18;100.00;60484.78;5095836;28;20106;-70
2023/04/15 00:05:49;;;;;;;20.57;11.43;;;;;;;-145.18;100.00;60484.78;5095932;28;20028;-70
2023/04/15 00:08:15;;;;;;;19.53;11.83;;;;;;;-145.18;100.00;60484.78;5096103;28;20077;-70
2023/04/15 00:10:43;;;;;;;24.43;12.30;;;;;;;-145.18;100.00;60484.78;5096066;28;20078;-70
2023/04/15 00:13:09;;;;;;;24.13;12.40;;;;;;;-145.18;100.00;60484.78;5096211;28;20537;-70
2023/04/15 00:15:34;;;;;;;23.73;12.53;;;;;;;-145.18;100.00;60484.78;5096083;28;20365;-70
2023/04/15 00:18:00;;;;;;;31.77;14.83;;;;;;;-145.18;100.00;60484.78;5095786;28;20027;-69
2023/04/15 00:20:25;;;;;;;28.20;14.00;;;;;;;-145.18;100.00;60484.78;5096065;28;20035;-70
2023/04/15 00:22:51;;;;;;;26.17;13.77;;;;;;;-145.18;100.00;60484.78;5093537;28;20030;-70
2023/04/15 00:25:16;;;;;;;28.00;14.00;;;;;;;-145.18;100.00;60484.78;5095754;28;20039;-70
2023/04/15 00:27:42;;;;;;;30.13;14.47;;;;;;;-145.18;100.00;60484.78;5095502;28;20024;-70
2023/04/15 00:30:08;;;;;;;28.37;15.57;;;;;;;-145.18;100.00;60484.78;5095327;28;20036;-70
2023/04/15 00:32:34;;;;;;;31.47;16.03;;;;;;;-145.18;100.00;60484.78;5095534;28;20051;-70
2023/04/15 00:34:59;;;;;;;30.13;14.83;;;;;;;-145.18;100.00;60484.78;5095421;28;20381;-70
2023/04/15 00:37:25;;;;;;;28.20;14.80;;;;;;;-145.18;100.00;60484.78;5095733;28;20034;-70
2023/04/15 00:39:50;;;;;;;35.37;15.30;;;;;;;-145.18;100.00;60484.78;5095432;28;20472;-70
2023/04/15 00:42:17;;;;;;;54.40;23.17;;;;;;;-145.18;100.00;60484.78;5095420;28;20035;-69
2023/04/15 00:44:43;;;;;;;37.57;17.00;;;;;;;-145.18;100.00;60484.78;5095484;28;20495;-70
2023/04/15 00:47:10;;;;;;;36.13;17.33;;;;;;;-145.18;100.00;60484.78;5095619;28;20056;-70
2023/04/15 00:49:35;;;;;;;31.20;16.87;;;;;;;-145.18;100.00;60484.78;5095417;28;20028;-70
2023/04/15 00:52:02;;;;;;;31.73;16.80;;;;;;;-145.18;100.00;60484.78;5095105;28;20047;-70
2023/04/15 00:54:27;;;;;;;35.23;17.53;;;;;;;-145.18;100.00;60484.78;5095080;28;20537;-70
2023/04/15 00:56:53;;;;;;;29.33;14.27;;;;;;;-145.18;100.00;60484.78;5095096;28;20035;-70
2023/04/15 00:59:19;;;;;;;32.30;15.00;;;;;;;-145.18;100.00;60484.78;5094902;28;20027;-70
2023/04/15 01:02:04;;;;;;;33.17;17.20;;;;;;;-145.18;100.00;60484.78;5095027;28;20043;-70
2023/04/15 01:04:30;;;;;;;46.43;22.43;;;;;;;-145.18;100.00;60484.78;5077192;22;20516;-70
2023/04/15 01:06:56;;;;;;;49.73;21.73;;;;;;;-145.18;100.00;60484.78;5050502;28;20131;-69
2023/04/15 01:09:21;;;;;;;27.83;14.07;;;;;;;-145.18;100.00;60484.78;5054559;28;20104;-70
2023/04/15 01:11:47;;;;;;;28.87;13.33;;;;;;;-145.18;100.00;60484.78;5054834;28;20029;-70
2023/04/15 01:14:13;;;;;;;24.03;13.20;;;;;;;-145.18;100.00;60484.78;5054431;28;20021;-69
2023/04/15 01:16:38;;;;;;;27.63;13.60;;;;;;;-145.18;100.00;60484.78;5052758;28;20119;-70
2023/04/15 01:19:09;;;;;;;53.03;21.53;;;;;;;-145.18;100.00;60484.78;5054101;28;20020;-70
2023/04/15 01:21:37;;;;;;;36.63;17.02;;;;;;;-145.18;100.00;60484.78;5053794;28;20094;-70
2023/04/15 01:24:09;;;;;;;29.23;14.23;;;;;;;-145.18;100.00;60484.78;5054380;28;20392;-70
2023/04/15 01:26:37;;;;;;;28.03;13.67;;;;;;;-145.18;100.00;60484.78;5054277;28;20044;-70
2023/04/15 01:29:02;;;;;;;35.60;17.30;;;;;;;-145.18;100.00;60484.78;5054119;28;20092;-70
2023/04/15 01:31:28;;;;;;;31.67;16.83;;;;;;;-145.18;100.00;60484.78;5054262;28;20040;-70
2023/04/15 01:33:53;;;;;;;35.20;16.93;;;;;;;-145.18;100.00;60484.78;5054193;28;20029;-70
2023/04/15 01:36:19;;;;;;;35.47;17.27;;;;;;;-145.18;100.00;60484.78;5054175;28;20032;-70
2023/04/15 01:38:45;;;;;;;37.47;17.27;;;;;;;-145.18;100.00;60484.78;5036119;28;20056;-70
2023/04/15 01:41:10;;;;;;;42.77;19.27;;;;;;;-145.18;100.00;60484.78;5053729;28;20021;-70
2023/04/15 01:43:38;;;;;;;42.17;19.37;;;;;;;-145.18;100.00;60484.78;5053969;28;20021;-70
2023/04/15 01:46:05;;;;;;;44.03;20.63;;;;;;;-145.18;100.00;60484.78;5036122;28;20035;-70
2023/04/15 01:48:31;;;;;;;45.67;21.07;;;;;;;-145.18;100.00;60484.78;5054220;28;20044;-70
2023/04/15 01:50:57;;;;;;;51.03;22.10;;;;;;;-145.18;100.00;60484.78;5036111;28;20036;-71
2023/04/15 01:53:24;;;;;;;44.97;20.73;;;;;;;-145.18;100.00;60484.78;5035769;28;20017;-71
2023/04/15 01:55:50;;;;;;;51.43;22.93;;;;;;;-145.18;100.00;60484.78;5054062;28;20063;-71
2023/04/15 01:58:16;;;;;;;53.00;25.03;;;;;;;-145.18;100.00;60484.78;5053659;28;20028;-70
2023/04/15 02:00:42;;;;;;;50.77;23.97;;;;;;;-145.18;100.00;60484.78;5053951;28;20028;-71
2023/04/15 02:03:08;;;;;;;52.63;23.87;;;;;;;-145.18;100.00;60484.78;5053317;28;20035;-71
2023/04/15 02:05:34;;;;;;;51.77;23.43;;;;;;;-145.18;100.00;60484.78;5035712;28;20068;-70
2023/04/15 02:07:59;;;;;;;49.10;23.53;;;;;;;-145.18;100.00;60484.78;5053460;28;20035;-70
2023/04/15 02:10:26;;;;;;;46.47;20.77;;;;;;;-145.18;100.00;60484.78;5053360;28;20024;-71
2023/04/15 02:12:51;;;;;;;39.50;18.33;;;;;;;-145.18;100.00;60484.78;5053741;28;20025;-71
2023/04/15 02:15:17;;;;;;;40.27;20.17;;;;;;;-145.18;100.00;60484.78;5053664;28;20028;-71
2023/04/15 02:17:44;;;;;;;41.80;19.90;;;;;;;-145.18;100.00;60484.78;5034026;28;20477;-70
2023/04/15 02:20:10;;;;;;;45.90;21.73;;;;;;;-145.18;100.00;60484.78;5033364;28;20049;-70
2023/04/15 02:22:36;;;;;;;44.20;21.73;;;;;;;-145.18;100.00;60484.78;5033918;28;20071;-70
2023/04/15 02:25:02;;;;;;;62.23;25.43;;;;;;;-145.18;100.00;60484.78;5033512;28;20477;-70
2023/04/15 02:27:27;;;;;;;46.10;22.90;;;;;;;-145.18;100.00;60484.78;5018134;28;20047;-70
2023/04/15 02:29:53;;;;;;;48.10;22.67;;;;;;;-145.18;100.00;60484.78;5033765;28;20022;-70
2023/04/15 02:32:20;;;;;;;46.10;23.30;;;;;;;-145.18;100.00;60484.78;5052411;28;20053;-69
2023/04/15 02:34:46;;;;;;;56.73;27.43;;;;;;;-145.18;100.00;60484.78;5050198;28;20086;-69
2023/04/15 02:37:12;;;;;;;50.20;25.33;;;;;;;-145.18;100.00;60484.78;5053117;28;20469;-69
2023/04/15 02:39:38;;;;;;;54.33;25.83;;;;;;;-145.18;100.00;60484.78;5035234;28;20017;-69
2023/04/15 02:42:04;;;;;;;57.60;27.47;;;;;;;-145.18;100.00;60484.78;5053315;28;20036;-70
2023/04/15 02:44:31;;;;;;;64.90;28.90;;;;;;;-145.18;100.00;60484.78;5053262;28;20032;-71
2023/04/15 02:46:57;;;;;;;67.07;30.13;;;;;;;-145.18;100.00;60484.78;5035095;28;20029;-71
2023/04/15 02:49:23;;;;;;;66.27;27.90;;;;;;;-145.18;100.00;60484.78;5052925;28;20469;-70
2023/04/15 02:51:50;;;;;;;65.47;27.63;;;;;;;-145.18;100.00;60484.78;5057967;28;20480;-71
2023/04/15 02:54:19;;;;;;;62.93;28.30;;;;;;;-145.18;100.00;60484.78;5059514;28;20032;-71
2023/04/15 02:56:45;;;;;;;71.23;28.83;;;;;;;-145.18;100.00;60484.78;5053229;28;20400;-71
2023/04/15 02:59:14;;;;;;;65.87;29.43;;;;;;;-145.18;100.00;60484.78;5039736;28;20029;-70
2023/04/15 03:01:39;;;;;;;66.63;28.67;;;;;;;-145.18;100.00;60484.78;5039974;28;20469;-70
2023/04/15 03:04:06;;;;;;;68.57;29.20;;;;;;;-145.18;100.00;60484.78;5041132;28;20050;-70
2023/04/15 03:06:32;;;;;;;70.80;31.73;;;;;;;-145.18;100.00;60484.78;5039556;28;20036;-70
2023/04/15 03:08:59;;;;;;;67.00;29.43;;;;;;;-145.18;100.00;60484.78;5039714;28;20021;-70
2023/04/15 03:11:25;;;;;;;66.67;29.70;;;;;;;-145.18;100.00;60484.78;5039232;28;20052;-71
2023/04/15 03:13:51;;;;;;;60.67;29.23;;;;;;;-145.18;100.00;60484.78;5039161;28;20021;-70
2023/04/15 03:16:16;;;;;;;63.30;29.53;;;;;;;-145.18;100.00;60484.78;5021428;28;20040;-71
2023/04/15 03:18:42;;;;;;;65.63;29.07;;;;;;;-145.18;100.00;60484.78;5039365;28;20477;-70
2023/04/15 03:21:07;;;;;;;65.17;27.83;;;;;;;-145.18;100.00;60484.78;5039302;28;20529;-71
2023/04/15 03:23:33;;;;;;;60.27;26.70;;;;;;;-145.18;100.00;60484.78;5039667;28;20084;-70
2023/04/15 03:26:01;;;;;;;65.00;26.77;;;;;;;-145.18;100.00;60484.78;5039268;28;20029;-69
2023/04/15 03:28:28;;;;;;;64.73;27.53;;;;;;;-145.18;100.00;60484.78;5039432;28;20032;-69
2023/04/15 03:30:53;;;;;;;63.00;26.63;;;;;;;-145.18;100.00;60484.78;5038605;28;20032;-70
2023/04/15 03:33:19;;;;;;;55.93;25.43;;;;;;;-145.18;100.00;60484.78;5021438;28;20022;-69
2023/04/15 03:35:45;;;;;;;54.10;24.43;;;;;;;-145.18;100.00;60484.78;5021582;28;20021;-69
2023/04/15 03:38:10;;;;;;;56.13;25.73;;;;;;;-145.18;100.00;60484.78;5039536;28;20041;-69
2023/04/15 03:40:37;;;;;;;56.03;25.57;;;;;;;-145.18;100.00;60484.78;5039199;28;20025;-69
2023/04/15 03:43:02;;;;;;;57.97;24.63;;;;;;;-145.18;100.00;60484.78;5039536;28;20366;-70
2023/04/15 03:45:29;;;;;;;62.03;27.20;;;;;;;-145.18;100.00;60484.78;5039113;28;20025;-69
2023/04/15 03:47:55;;;;;;;59.17;26.47;;;;;;;-145.18;100.00;60484.78;5039105;28;20489;-69
2023/04/15 03:50:20;;;;;;;66.67;28.57;;;;;;;-145.18;100.00;60484.78;5039030;28;20067;-69
2023/04/15 03:52:46;;;;;;;66.80;28.47;;;;;;;-145.18;100.00;60484.78;5039325;28;20040;-69
2023/04/15 03:55:11;;;;;;;65.13;27.50;;;;;;;-145.18;100.00;60484.78;5023871;28;20527;-69
2023/04/15 03:57:38;;;;;;;63.00;27.20;;;;;;;-145.18;100.00;60484.78;5038985;28;20021;-70
2023/04/15 04:00:04;;;;;;;65.30;29.00;;;;;;;-145.18;100.00;60484.78;5039338;28;20021;-70
2023/04/15 04:02:30;;;;;;;71.03;29.77;;;;;;;-145.18;100.00;60484.78;5036873;28;20022;-69
2023/04/15 04:04:55;;;;;;;71.80;29.67;;;;;;;-145.18;100.00;60484.78;5035659;28;20053;-70
2023/04/15 04:07:23;;;;;;;71.57;28.33;;;;;;;-145.18;100.00;60484.78;5035917;28;20056;-69
2023/04/15 04:09:48;;;;;;;74.53;30.00;;;;;;;-145.18;100.00;60484.78;5035593;28;20108;-70
2023/04/15 04:12:14;;;;;;;74.03;29.33;;;;;;;-145.18;100.00;60484.78;5036177;28;20556;-69
2023/04/15 04:14:39;;;;;;;68.80;28.63;;;;;;;-145.18;100.00;60484.78;5035992;28;20386;-69
2023/04/15 04:17:05;;;;;;;72.90;29.13;;;;;;;-145.18;100.00;60484.78;5035619;28;20076;-70
2023/04/15 04:19:30;;;;;;;78.13;29.70;;;;;;;-145.18;100.00;60484.78;5035692;28;20017;-69
2023/04/15 04:21:56;;;;;;;74.23;30.20;;;;;;;-145.18;100.00;60484.78;5035601;28;20113;-70
2023/04/15 04:24:21;;;;;;;70.20;28.50;;;;;;;-145.18;100.00;60484.78;5037611;28;20048;-70
2023/04/15 04:26:47;;;;;;;77.67;30.07;;;;;;;-145.18;100.00;60484.78;5035447;28;20030;-70
2023/04/15 04:29:12;;;;;;;82.53;31.13;;;;;;;-145.18;100.00;60484.78;5035428;28;20028;-70
2023/04/15 04:31:38;;;;;;;72.33;29.67;;;;;;;-145.18;100.00;60484.78;5035624;28;20033;-70
2023/04/15 04:34:03;;;;;;;78.40;31.03;;;;;;;-145.18;100.00;60484.78;5037887;28;20030;-70
2023/04/15 04:36:29;;;;;;;72.20;30.17;;;;;;;-145.18;100.00;60484.78;5032083;28;20457;-70
2023/04/15 04:38:55;;;;;;;70.03;28.03;;;;;;;-145.18;100.00;60484.78;5055170;28;20017;-70
2023/04/15 04:41:20;;;;;;;63.27;27.40;;;;;;;-145.18;100.00;60484.78;5055084;28;20025;-70
2023/04/15 04:43:46;;;;;;;60.10;26.57;;;;;;;-145.18;100.00;60484.78;5055383;28;20373;-70
2023/04/15 04:46:12;;;;;;;58.03;25.47;;;;;;;-145.18;100.00;60484.78;5055044;28;20024;-69
2023/04/15 04:48:38;;;;;;;55.87;25.37;;;;;;;-145.18;100.00;60484.78;5055249;28;20476;-69
2023/04/15 04:51:03;;;;;;;53.43;25.13;;;;;;;-145.18;100.00;60484.78;5045454;28;20120;-69
2023/04/15 04:53:29;;;;;;;49.03;23.53;;;;;;;-145.18;100.00;60484.78;5034923;28;20104;-70
2023/04/15 04:55:55;;;;;;;49.17;24.63;;;;;;;-145.18;100.00;60484.78;5035363;28;20384;-70
2023/04/15 04:58:20;;;;;;;58.60;24.80;;;;;;;-145.18;100.00;60484.78;5034831;28;20033;-70
2023/04/15 05:00:46;;;;;;;51.23;23.60;;;;;;;-145.18;100.00;60484.78;5034783;28;20094;-70
2023/04/15 05:03:11;;;;;;;44.90;23.37;;;;;;;-145.18;100.00;60484.78;5034681;28;20025;-70
2023/04/15 05:05:39;;;;;;;45.37;22.37;;;;;;;-145.18;100.00;60484.78;5034845;28;20045;-70
2023/04/15 05:08:05;;;;;;;48.17;23.13;;;;;;;-145.18;100.00;60484.78;5034667;28;20025;-70
2023/04/15 05:10:31;;;;;;;44.27;21.90;;;;;;;-145.18;100.00;60484.78;5034841;28;20028;-70
2023/04/15 05:12:57;;;;;;;43.80;21.40;;;;;;;-145.18;100.00;60484.78;5034719;28;20392;-70
2023/04/15 05:15:22;;;;;;;37.77;19.63;;;;;;;-145.18;100.00;60484.78;5052358;28;20024;-70
2023/04/15 05:17:48;;;;;;;41.17;21.17;;;;;;;-145.18;100.00;60484.78;5018752;28;20189;-70
2023/04/15 05:20:14;;;;;;;38.13;20.60;;;;;;;-145.18;100.00;60484.78;5034518;28;20389;-71
2023/04/15 05:22:40;;;;;;;41.83;20.23;;;;;;;-145.18;100.00;60484.78;5034840;28;20089;-70
2023/04/15 05:25:06;;;;;;;39.30;20.07;;;;;;;-145.18;100.00;60484.78;5034335;28;20045;-70
2023/04/15 05:27:31;;;;;;;38.80;20.57;;;;;;;-145.18;100.00;60484.78;5034326;28;20124;-70
2023/04/15 05:29:57;;;;;;;36.87;19.17;;;;;;;-145.18;100.00;60484.78;5034129;28;20105;-70
2023/04/15 05:32:22;;;;;;;32.93;18.57;;;;;;;-145.18;100.00;60484.78;5034073;28;20055;-70
2023/04/15 05:34:48;;;;;;;35.80;18.40;;;;;;;-145.18;100.00;60484.78;5033715;28;20040;-70
2023/04/15 05:37:13;;;;;;;35.40;18.37;;;;;;;-145.18;100.00;60484.78;5034033;28;20025;-70
2023/04/15 05:39:38;;;;;;;31.83;17.90;;;;;;;-145.18;100.00;60484.78;5034138;28;20128;-70
2023/04/15 05:42:04;;;;;;;32.60;17.67;;;;;;;-145.18;100.00;60484.78;5034507;28;20021;-71
2023/04/15 05:44:30;;;;;;;31.50;17.43;;;;;;;-145.18;100.00;60484.78;5034336;28;20465;-70
2023/04/15 05:46:56;;;;;;;31.93;17.10;;;;;;;-145.18;100.00;60484.78;5036701;28;20029;-70
2023/04/15 05:49:22;;;;;;;33.47;16.50;;;;;;;-145.18;100.00;60484.78;5034108;28;20041;-70
2023/04/15 05:51:47;;;;;;;32.77;16.43;;;;;;;-145.18;100.00;60484.78;5034114;28;20033;-70
2023/04/15 05:54:13;;;;;;;30.30;15.50;;;;;;;-145.18;100.00;60484.78;5034174;28;20025;-70
2023/04/15 05:56:38;;;;;;;29.07;15.63;;;;;;;-145.18;100.00;60484.78;5033717;28;20385;-70
2023/04/15 05:59:04;;;;;;;31.70;16.27;;;;;;;-145.18;100.00;60484.78;5033716;28;20025;-71
2023/04/15 06:01:29;;;;;;;28.47;15.33;;;;;;;-145.18;100.00;60484.78;5033515;28;20443;-71
2023/04/15 06:03:55;;;;;;;30.10;15.47;;;;;;;-145.18;100.00;60484.78;5033418;28;20049;-70
2023/04/15 06:06:21;;;;;;;27.90;15.47;;;;;;;-145.18;100.00;60484.78;5033850;28;20049;-70
2023/04/15 06:08:46;;;;;;;29.93;15.03;;;;;;;-145.18;100.00;60484.78;5033723;28;20018;-70
2023/04/15 06:11:12;;;;;;;29.07;15.87;;;;;;;-145.18;100.00;60484.78;5033546;28;20545;-70
2023/04/15 06:13:37;;;;;;;29.03;15.63;;;;;;;-145.18;100.00;60484.78;5033417;28;20025;-70
2023/04/15 06:16:03;;;;;;;25.47;13.43;;;;;;;-145.18;100.00;60484.78;5032620;28;20381;-70
2023/04/15 06:18:29;;;;;;;26.83;14.67;;;;;;;-145.18;100.00;60484.78;5033333;28;20421;-70
2023/04/15 06:20:54;;;;;;;28.47;14.83;;;;;;;-145.18;100.00;60484.78;5015803;28;20025;-70
2023/04/15 06:23:20;;;;;;;26.30;14.37;;;;;;;-145.18;100.00;60484.78;5033414;28;20389;-70
2023/04/15 06:25:45;;;;;;;29.07;15.33;;;;;;;-145.18;100.00;60484.78;5033252;28;20072;-71
2023/04/15 06:28:11;;;;;;;27.93;15.17;;;;;;;-145.18;100.00;60484.78;5034017;28;20366;-71
2023/04/15 06:30:37;;;;;;;30.60;16.00;;;;;;;-145.18;100.00;60484.78;5036043;28;20424;-71
2023/04/15 06:33:04;;;;;;;31.70;16.17;;;;;;;-145.18;100.00;60484.78;5033157;28;20549;-70
2023/04/15 06:35:30;;;;;;;32.80;15.53;;;;;;;-145.18;100.00;60484.78;5049304;28;20388;-70
2023/04/15 06:37:55;;;;;;;32.40;17.17;;;;;;;-145.18;100.00;60484.78;5053136;28;20025;-71
2023/04/15 06:40:21;;;;;;;34.77;17.13;;;;;;;-145.18;100.00;60484.78;5052997;28;20013;-71
2023/04/15 06:42:46;;;;;;;36.23;17.70;;;;;;;-145.18;100.00;60484.78;5052659;28;20029;-70
2023/04/15 06:45:12;;;;;;;33.33;16.37;;;;;;;-145.18;100.00;60484.78;5034271;28;20385;-70
2023/04/15 06:47:37;;;;;;;34.53;17.30;;;;;;;-145.18;100.00;60484.78;5033018;28;20416;-71
2023/04/15 06:50:03;;;;;;;35.77;16.63;;;;;;;-145.18;100.00;60484.78;5032983;28;20048;-71
2023/04/15 06:52:29;;;;;;;35.23;17.83;;;;;;;-145.18;100.00;60484.78;5033355;28;20049;-70
2023/04/15 06:54:54;;;;;;;38.03;17.87;;;;;;;-145.18;100.00;60484.78;5037916;28;20028;-70
2023/04/15 06:57:20;;;;;;;35.33;16.93;;;;;;;-145.18;100.00;60484.78;5034880;28;20049;-71
2023/04/15 06:59:46;;;;;;;39.50;18.13;;;;;;;-145.18;100.00;60484.78;5052875;28;20450;-71
2023/04/15 07:02:12;;;;;;;35.73;16.57;;;;;;;-145.18;100.00;60484.78;5053208;28;20044;-71
2023/04/15 07:04:38;;;;;;;35.80;17.90;;;;;;;-145.18;100.00;60484.78;5052499;28;20045;-72
2023/04/15 07:07:04;;;;;;;37.67;18.43;;;;;;;-145.18;100.00;60484.78;5052862;28;20032;-71
2023/04/15 07:09:31;;;;;;;40.23;19.63;;;;;;;-145.18;100.00;60484.78;5052700;28;20485;-72
2023/04/15 07:11:56;;;;;;;42.47;20.43;;;;;;;-145.18;100.00;60484.78;5043327;28;20063;-70
2023/04/15 07:14:22;;;;;;;43.13;21.03;;;;;;;-145.18;100.00;60484.78;5032795;28;20551;-71
2023/04/15 07:16:47;;;;;;;49.57;21.43;;;;;;;-145.18;100.00;60484.78;5032971;28;20045;-71
2023/04/15 07:19:13;;;;;;;50.67;23.10;;;;;;;-145.18;100.00;60484.78;5035907;28;20025;-71
2023/04/15 07:21:38;;;;;;;48.17;22.47;;;;;;;-145.18;100.00;60484.78;5052671;28;20021;-71
2023/04/15 07:24:04;;;;;;;49.97;22.33;;;;;;;-145.18;100.00;60484.78;5052555;28;20036;-71
2023/04/15 07:26:30;;;;;;;47.93;22.27;;;;;;;-145.18;100.00;60484.78;5052416;28;20032;-71
2023/04/15 07:28:55;;;;;;;44.93;21.67;;;;;;;-145.18;100.00;60484.78;5048839;28;20018;-71
2023/04/15 07:31:21;;;;;;;46.60;21.73;;;;;;;-145.18;100.00;60484.78;5014857;28;20036;-71
2023/04/15 07:33:46;;;;;;;45.63;21.67;;;;;;;-145.18;100.00;60484.78;5032487;28;20029;-70
2023/04/15 07:36:12;;;;;;;41.57;20.83;;;;;;;-145.18;100.00;60484.78;5037486;28;20040;-71
2023/04/15 07:38:38;;;;;;;40.27;19.90;;;;;;;-145.18;100.00;60484.78;5055011;28;20021;-71
2023/04/15 07:41:03;;;;;;;45.13;20.07;;;;;;;-145.18;100.00;60484.78;5056257;28;20074;-71
2023/04/15 07:43:29;;;;;;;42.27;20.67;;;;;;;-145.18;100.00;60484.78;5056117;28;20503;-71
2023/04/15 07:45:54;;;;;;;35.93;19.63;;;;;;;-145.18;100.00;60484.78;5056260;28;20100;-71
2023/04/15 07:48:20;;;;;;;40.70;19.90;;;;;;;-145.18;100.00;60484.78;5056370;28;20062;-70
2023/04/15 07:50:45;;;;;;;37.50;19.83;;;;;;;-145.18;100.00;60484.78;5056023;28;20096;-70
2023/04/15 07:53:11;;;;;;;37.87;18.40;;;;;;;-145.18;100.00;60484.78;5055981;28;20032;-70
2023/04/15 07:55:36;;;;;;;39.57;19.57;;;;;;;-145.18;100.00;60484.78;5055931;28;20033;-70
2023/04/15 07:58:02;;;;;;;41.57;20.57;;;;;;;-145.18;100.00;60484.78;5056048;28;20025;-70
2023/04/15 08:00:28;;;;;;;37.80;18.10;;;;;;;-145.18;100.00;60484.78;5056099;28;20044;-70
2023/04/15 08:02:56;;;;;;;40.30;18.17;;;;;;;-145.18;100.00;60484.78;5056022;28;20477;-70
2023/04/15 08:05:21;;;;;;;36.70;18.07;;;;;;;-145.18;100.00;60484.78;5055629;28;20043;-70
2023/04/15 08:07:47;;;;;;;36.20;18.97;;;;;;;-145.18;100.00;60484.78;5055718;28;20025;-71
2023/04/15 08:10:13;;;;;;;34.47;17.03;;;;;;;-145.18;100.00;60484.78;5055918;28;20426;-70
2023/04/15 08:12:38;;;;;;;40.30;19.70;;;;;;;-145.18;100.00;60484.78;5052091;28;20091;-70
2023/04/15 08:15:06;;;;;;;41.03;19.87;;;;;;;-145.18;100.00;60484.78;5035838;28;20022;-70
2023/04/15 08:17:32;;;;;;;42.33;19.83;;;;;;;-145.18;100.00;60484.78;5035747;28;20030;-70
2023/04/15 08:19:58;;;;;;;40.27;19.77;;;;;;;-145.18;100.00;60484.78;5035675;28;20048;-70
2023/04/15 08:22:23;;;;;;;44.90;22.30;;;;;;;-145.18;100.00;60484.78;5035500;28;20572;-70
2023/04/15 08:24:48;;;;;;;42.70;20.17;;;;;;;-145.18;100.00;60484.78;5037025;28;20021;-70
2023/04/15 08:27:14;;;;;;;42.07;19.63;;;;;;;-145.18;100.00;60484.78;5036704;28;20025;-71
2023/04/15 08:29:39;;;;;;;40.20;20.20;;;;;;;-145.18;100.00;60484.78;5035559;28;20051;-70
2023/04/15 08:32:05;;;;;;;36.67;18.67;;;;;;;-145.18;100.00;60484.78;5035325;28;20450;-70
2023/04/15 08:34:31;;;;;;;35.27;18.27;;;;;;;-145.18;100.00;60484.78;5036321;28;20056;-70
2023/04/15 08:36:56;;;;;;;32.40;17.70;;;;;;;-145.18;100.00;60484.78;5047402;28;20058;-70
2023/04/15 08:39:22;;;;;;;29.43;16.03;;;;;;;-145.18;100.00;60484.78;5037910;28;20056;-70
2023/04/15 08:41:55;;;;;;;27.40;14.83;;;;;;;-145.18;100.00;60484.78;5055313;28;20074;-70
2023/04/15 08:44:23;;;;;;;30.90;16.30;;;;;;;-145.18;100.00;60484.78;5055020;28;20472;-70
2023/04/15 08:46:50;;;;;;;28.70;13.60;;;;;;;-145.18;100.00;60484.78;5055043;28;20025;-71
2023/04/15 08:49:18;;;;;;;25.00;12.00;;;;;;;-145.18;100.00;60484.78;5054580;28;20021;-71
2023/04/15 08:51:44;;;;;;;22.17;11.43;;;;;;;-145.18;100.00;60484.78;5055047;28;20025;-71
2023/04/15 08:54:10;;;;;;;22.10;11.40;;;;;;;-145.18;100.00;60484.78;5055265;28;20047;-72
2023/04/15 08:56:36;;;;;;;20.93;10.37;;;;;;;-145.18;100.00;60484.78;5036960;28;20496;-71
2023/04/15 08:59:02;;;;;;;18.97;9.93;;;;;;;-145.18;100.00;60484.78;5054822;28;20017;-71
2023/04/15 09:01:28;;;;;;;15.83;8.83;;;;;;;-145.18;100.00;60484.78;5054701;28;20090;-71
2023/04/15 09:03:55;;;;;;;17.03;8.67;;;;;;;-145.18;100.00;60484.78;5039241;28;20076;-71
2023/04/15 09:06:21;;;;;;;15.20;8.17;;;;;;;-145.18;100.00;60484.78;5017075;28;20379;-71
2023/04/15 09:08:47;;;;;;;18.40;9.07;;;;;;;-145.18;100.00;60484.78;5034652;28;20075;-71
2023/04/15 09:11:13;;;;;;;15.30;8.53;;;;;;;-145.18;100.00;60484.78;5034947;28;20026;-71
2023/04/15 09:13:39;;;;;;;14.13;8.00;;;;;;;-145.18;100.00;60484.78;5034550;28;20116;-71
2023/04/15 09:16:05;;;;;;;11.60;6.47;;;;;;;-145.18;100.00;60484.78;5034557;28;20052;-71
2023/04/15 09:18:35;;;;;;;14.97;7.80;;;;;;;-145.18;100.00;60484.78;5033707;28;20037;-71
2023/04/15 09:21:28;;;;;;;14.03;7.30;;;;;;;-145.18;100.00;60484.78;5034382;28;20029;-71
2023/04/15 09:23:56;;;;;;;11.00;6.60;;;;;;;-145.18;100.00;60484.78;5031980;28;20064;-71
2023/04/15 09:26:36;;;;;;;13.23;6.43;;;;;;;-145.18;100.00;60484.78;5027566;28;20059;-71
2023/04/15 09:29:09;;;;;;;11.00;6.30;;;;;;;-145.18;100.00;60484.78;5054442;28;20017;-71
2023/04/15 09:31:36;;;;;;;13.73;6.60;;;;;;;-145.18;100.00;60484.78;5054385;28;20032;-71
2023/04/15 09:34:02;;;;;;;12.37;6.50;;;;;;;-145.18;100.00;60484.78;5036446;28;20020;-71
2023/04/15 09:36:30;;;;;;;12.70;6.70;;;;;;;-145.18;100.00;60484.78;5054120;28;20472;-71
2023/04/15 09:38:59;;;;;;;10.80;6.37;;;;;;;-145.18;100.00;60484.78;5045718;28;20492;-71
2023/04/15 09:41:26;;;;;;;9.83;5.80;;;;;;;-145.18;100.00;60484.78;5031301;28;20113;-71
2023/04/15 09:43:51;;;;;;;11.20;5.70;;;;;;;-145.18;100.00;60484.78;5013136;28;20033;-71
2023/04/15 09:46:17;;;;;;;10.47;5.47;;;;;;;-145.18;100.00;60484.78;5032958;28;20393;-71
2023/04/15 09:48:43;;;;;;;10.80;5.80;;;;;;;-145.18;100.00;60484.78;5031315;28;20456;-71
2023/04/15 09:51:09;;;;;;;11.50;5.77;;;;;;;-145.18;100.00;60484.78;5028704;28;20108;-71
2023/04/15 09:53:37;;;;;;;11.47;5.70;;;;;;;-145.18;100.00;60484.78;5027335;28;20032;-72
2023/04/15 09:56:03;;;;;;;10.73;5.63;;;;;;;-145.18;100.00;60484.78;5010358;28;20528;-71
2023/04/15 09:58:30;;;;;;;12.03;5.67;;;;;;;-145.18;100.00;60484.78;5031505;28;20056;-71
2023/04/15 10:00:58;;;;;;;9.87;4.90;;;;;;;-145.18;100.00;60484.78;5030300;28;20086;-71
2023/04/15 10:03:28;;;;;;;8.40;5.43;;;;;;;-145.18;100.00;60484.78;5026908;28;20037;-71
2023/04/15 10:05:59;;;;;;;8.10;4.97;;;;;;;-145.18;100.00;60484.78;5029802;28;20029;-71
2023/04/15 10:08:30;;;;;;;8.40;5.00;;;;;;;-145.18;100.00;60484.78;5012270;28;20071;-71
2023/04/15 10:10:56;;;;;;;9.98;5.63;;;;;;;-145.18;100.00;60484.78;5018252;28;20025;-71
2023/04/15 10:13:29;;;;;;;11.97;5.70;;;;;;;-145.18;100.00;60484.78;5031355;28;20025;-71
2023/04/15 10:16:05;;;;;;;9.47;4.83;;;;;;;-145.18;100.00;60484.78;5029021;28;20396;-71
2023/04/15 10:18:34;;;;;;;11.67;5.50;;;;;;;-145.18;100.00;60484.78;5033700;28;20027;-71
2023/04/15 10:21:00;;;;;;;12.17;5.50;;;;;;;-145.18;100.00;60484.78;5026243;28;20548;-71
2023/04/15 10:23:26;;;;;;;9.10;5.60;;;;;;;-145.18;100.00;60484.78;5023370;28;20033;-71
2023/04/15 10:25:53;;;;;;;8.33;5.40;;;;;;;-145.18;100.00;60484.78;5027729;28;20570;-71
2023/04/15 10:28:20;;;;;;;9.67;5.87;;;;;;;-145.18;100.00;60484.78;5037006;28;20017;-71
2023/04/15 10:30:46;;;;;;;9.27;6.00;;;;;;;-145.18;100.00;60484.78;5038120;28;20028;-71
2023/04/15 10:33:13;;;;;;;11.13;5.90;;;;;;;-145.18;100.00;60484.78;5027897;28;20026;-71
2023/04/15 10:35:39;;;;;;;10.13;5.90;;;;;;;-145.18;100.00;60484.78;5030765;28;20026;-71
2023/04/15 10:38:37;;;;;;;9.60;5.63;;;;;;;-145.18;100.00;60484.78;5017905;28;20402;-71
2023/04/15 10:41:38;;;;;;;12.10;6.90;;;;;;;-145.18;100.00;60484.78;5020331;28;20029;-70
2023/04/15 10:44:04;;;;;;;10.93;6.70;;;;;;;-145.18;100.00;60484.78;5031936;28;20052;-71
2023/04/15 10:46:41;;;;;;;8.27;5.03;;;;;;;-145.18;100.00;60484.78;5031533;28;20025;-71
2023/04/15 10:49:12;;;;;;;11.03;6.80;;;;;;;-145.18;100.00;60484.78;5031720;28;20067;-71
2023/04/15 10:51:43;;;;;;;11.00;7.20;;;;;;;-145.18;100.00;60484.78;5033296;28;20120;-72